Torbat-Heydarieh, Iran
Current Conditions -  °F | °C
As of 4:30 PM on Tuesday 21 Oct 2014 (Local Time) from OIMM Reporting Station
Haze Haze  
Wind Chill: 63°   Ceiling: Unl
Heat Index: 63°   Visibility: 3mi
Dew Point: 46°   Wind: 5mph
Humidity: 55%   Direction: 70°ENE
Pressure: 29.97"   Gusts: NA
Location:  35.27°N, 59.22°E
Report Text: OIMM 211330Z 07004KT 5000 HZ NSC 17/08 Q1015 A2999
Loading
Personal Weather Stations






























Interactive Weather Map New forecast layout! Learn more

10-Day Weather Forecast

Advertisements
Track Severe Weather on mobile